Long Island Mac Arthur Airport
KISP : now visible

Airfield :











YOU CAN JOIN US ON...

 
LOGIN :

Register | Disclaimer

   EN    FR    IT 

 









Legend :    VFR   Marginal VFR   IFR   Intensive IFR   Very Intensive IFR
Visi :
Ceiling :
>= 8 km
>= 3000ft
5 to 8 km
1000 to 3000 ft
1500m to 5 km
500 to 1000 ft
800 to 1500m
200 to 500 ft
< 800m
< 200 ft
Symbols :   Thunderstorms  Fog  Heavy snow  Heavy precipitations  Wind > 20 kt






- Airport Elevation : 99 ft
- IATA code : ISP


KISP - Long Island Mac Arthur

CURRENT METAR :
  • 121756Z 34013KT 10SM FEW050 FEW200 18/03 A3012 RMK AO2 SLP197 T01780028 10178 20100 58008

EXPIRED METARs :
  • 121656Z 34013G20KT 10SM FEW055 FEW250 17/03 A3013 RMK AO2 SLP202 T01670033
  • 121556Z 32016G22KT 10SM FEW050 FEW250 16/03 A3013 RMK AO2 SLP204 T01560033

TAF KISP
Valid from the 12 at 18:00 until the 13 at 18:00 UTC


121741Z 1218/1318 33011G18KT P6SM FEW060 SCT100
FM122300 32008KT P6SM SCT100
FM130200 33006KT P6SM FEW070
KZBW FIR / North America



MET'MAP, your aeronautical weather chart ! - Copyright ORBIFLY December 2007 - Disclaimer

ORBIFLY MET'MAP TEAM :

Programming & Development : Alexandra Zaïnal
Concept & original design : Baudouin d'Aumeries
Assistance for programming : Marc-Olivier Méhu
Technical & hardware support : Manuel Goepfert

Contact : metmap@orbifly.com




SOURCES & CREDITS :

   NOAA       Earth
Advisory